createdAt,value
2023-02-26T10:39:39.514Z,20.62
2023-02-26T10:42:13.967Z,21.61
2023-02-26T10:44:55.308Z,22.57
2023-02-26T10:47:21.805Z,19.81
2023-02-26T10:49:55.211Z,16.99
2023-02-26T10:52:25.382Z,14.32
2023-02-26T10:55:04.460Z,12.77
2023-02-26T10:57:35.164Z,11.42
2023-02-26T11:00:05.230Z,9.94
2023-02-26T11:02:37.902Z,10.66
2023-02-26T11:05:08.272Z,11.08
2023-02-26T11:07:38.083Z,11.40
2023-02-26T11:10:05.207Z,11.35
2023-02-26T11:12:32.616Z,11.59
2023-02-26T11:15:01.041Z,10.73
2023-02-26T11:17:32.495Z,10.19
2023-02-26T11:20:02.673Z,9.94
2023-02-26T11:22:36.463Z,8.96
2023-02-26T11:25:04.781Z,9.01
2023-02-26T11:27:36.689Z,9.18
2023-02-26T11:30:26.129Z,9.34
2023-02-26T11:32:56.844Z,11.13
2023-02-26T11:35:26.662Z,11.85
2023-02-26T11:37:57.857Z,13.03
2023-02-26T11:40:42.701Z,13.77
2023-02-26T11:43:18.148Z,12.93
2023-02-26T11:45:49.006Z,13.15
2023-02-26T11:48:22.569Z,12.40
2023-02-26T11:50:52.897Z,10.63
2023-02-26T11:53:51.037Z,9.87
2023-02-26T11:56:31.860Z,9.69
2023-02-26T11:59:05.649Z,9.48
2023-02-26T12:01:32.212Z,8.68
2023-02-26T12:04:02.462Z,9.22
2023-02-26T12:06:29.622Z,10.43
2023-02-26T12:08:56.600Z,11.25
2023-02-26T12:11:32.180Z,13.08
2023-02-26T12:14:10.591Z,13.64
2023-02-26T12:16:49.831Z,12.58
2023-02-26T12:19:40.685Z,11.88
2023-02-26T12:22:41.294Z,11.37
2023-02-26T12:25:41.424Z,11.38
2023-02-26T12:28:45.821Z,11.79
2023-02-26T12:31:22.718Z,13.72
2023-02-26T12:34:37.121Z,17.57
2023-02-26T12:37:27.980Z,17.25
2023-02-26T12:40:30.973Z,17.99
2023-02-26T12:43:11.168Z,17.23
2023-02-26T12:46:13.421Z,16.07
2023-02-26T12:48:51.479Z,15.27
2023-02-26T12:51:39.340Z,14.40
2023-02-26T12:54:34.277Z,13.21
2023-02-26T12:57:08.626Z,12.44
2023-02-26T12:59:56.234Z,11.27
2023-02-26T13:02:54.112Z,10.43
2023-02-26T13:05:27.081Z,11.35
2023-02-26T13:08:07.434Z,13.24
2023-02-26T13:10:47.806Z,12.98
2023-02-26T13:13:20.310Z,14.13
2023-02-26T13:15:59.004Z,14.88
2023-02-26T13:18:49.656Z,14.30
2023-02-26T13:21:29.737Z,13.49
2023-02-26T13:24:12.146Z,13.65
2023-02-26T13:26:40.876Z,12.73
2023-02-26T13:29:19.687Z,11.50
2023-02-26T13:32:15.276Z,10.89
2023-02-26T13:34:47.449Z,9.88
2023-02-26T13:37:24.150Z,9.93
2023-02-26T13:39:56.668Z,9.49
2023-02-26T13:42:51.559Z,9.21
2023-02-26T13:45:45.808Z,8.93
2023-02-26T13:48:15.630Z,8.63
2023-02-26T13:50:54.349Z,8.46
2023-02-26T13:53:23.951Z,8.91
2023-02-26T13:55:54.012Z,8.91
2023-02-26T13:58:33.751Z,9.16
2023-02-26T14:01:18.927Z,9.13
2023-02-26T14:04:07.072Z,8.91
2023-02-26T14:06:40.468Z,9.88
2023-02-26T14:09:22.289Z,10.28
2023-02-26T14:11:55.039Z,10.09
2023-02-26T14:14:21.718Z,9.76
2023-02-26T14:16:56.074Z,9.75
2023-02-26T14:19:33.391Z,9.48
2023-02-26T14:22:18.479Z,9.79
2023-02-26T14:24:58.299Z,9.70
2023-02-26T14:27:37.517Z,11.29
2023-02-26T14:30:18.772Z,11.58
2023-02-26T14:32:57.340Z,11.37
2023-02-26T14:35:28.157Z,10.80
2023-02-26T14:38:26.046Z,10.41
2023-02-26T14:41:03.273Z,9.47
2023-02-26T14:43:42.358Z,9.43
2023-02-26T14:46:11.076Z,9.57
2023-02-26T14:48:39.070Z,9.65
2023-02-26T14:51:25.198Z,9.87
2023-02-26T14:54:21.638Z,9.83
2023-02-26T14:57:11.820Z,9.19
2023-02-26T15:00:09.700Z,9.16
2023-02-26T15:02:42.274Z,9.13
2023-02-26T15:05:22.569Z,8.86
2023-02-26T15:08:16.247Z,8.70
2023-02-26T15:11:16.907Z,8.70
2023-02-26T15:13:49.512Z,11.03
2023-02-26T15:16:48.528Z,13.02
2023-02-26T15:19:49.078Z,13.93
2023-02-26T15:22:53.952Z,14.91
2023-02-26T15:25:30.072Z,15.72
2023-02-26T15:27:57.129Z,16.62
2023-02-26T15:30:24.734Z,14.67
2023-02-26T15:32:57.070Z,12.85
2023-02-26T15:35:23.750Z,11.60
2023-02-26T15:37:53.335Z,10.89
2023-02-26T15:40:20.689Z,10.52
2023-02-26T15:42:51.687Z,10.08
2023-02-26T15:45:37.245Z,9.84
2023-02-26T15:48:12.916Z,9.49
2023-02-26T15:50:45.262Z,8.69
2023-02-26T15:53:18.366Z,8.23
2023-02-26T15:56:11.898Z,8.21
2023-02-26T15:59:14.110Z,8.18
2023-02-26T16:01:41.279Z,8.12
2023-02-26T16:04:13.203Z,7.82
2023-02-26T16:06:47.748Z,7.55
2023-02-26T16:09:25.524Z,6.96
2023-02-26T16:11:55.264Z,6.96
2023-02-26T16:14:25.102Z,6.97
2023-02-26T16:16:54.727Z,6.89
2023-02-26T16:19:34.041Z,6.81
2023-02-26T16:22:04.347Z,6.46
2023-02-26T16:24:32.459Z,6.60
2023-02-26T16:27:08.874Z,6.68
2023-02-26T16:29:37.759Z,6.61
2023-02-26T16:32:09.547Z,6.21
2023-02-26T16:34:43.336Z,6.39
2023-02-26T16:37:32.206Z,6.47
2023-02-26T16:40:15.948Z,6.33
2023-02-26T16:42:53.274Z,6.19
2023-02-26T16:45:35.102Z,6.09
2023-02-26T16:48:06.404Z,6.14
2023-02-26T16:50:36.167Z,6.22
2023-02-26T16:53:07.346Z,6.17
2023-02-26T16:55:37.753Z,6.13
2023-02-26T16:58:07.828Z,5.98
2023-02-26T17:00:37.883Z,5.85
2023-02-26T17:03:04.416Z,5.81
2023-02-26T17:05:35.502Z,5.46
2023-02-26T17:08:17.637Z,5.69
2023-02-26T17:10:48.653Z,5.65
2023-02-26T17:13:25.571Z,5.54
2023-02-26T17:15:54.340Z,5.39
2023-02-26T17:18:21.820Z,5.21
2023-02-26T17:20:48.658Z,5.07
2023-02-26T17:23:17.304Z,5.07
2023-02-26T17:25:47.464Z,4.86
2023-02-26T17:28:21.141Z,4.83
2023-02-26T17:30:47.686Z,4.97
2023-02-26T17:33:14.797Z,4.90
2023-02-26T17:35:42.892Z,4.95
2023-02-26T17:38:13.335Z,4.80
2023-02-26T17:40:41.545Z,4.93
2023-02-26T17:43:09.972Z,4.26
2023-02-26T17:45:40.232Z,4.72
2023-02-26T17:48:07.730Z,4.61
2023-02-26T17:50:38.361Z,4.66
2023-02-26T17:53:05.622Z,4.62
2023-02-26T17:55:33.302Z,4.08
2023-02-26T17:57:59.951Z,4.33
2023-02-26T18:00:26.488Z,4.42
2023-02-26T18:02:53.135Z,4.05
2023-02-26T18:05:20.589Z,4.31
2023-02-26T18:07:48.955Z,4.33
2023-02-26T18:10:23.717Z,4.30
2023-02-26T18:12:51.050Z,4.12
2023-02-26T18:15:17.841Z,4.29
2023-02-26T18:17:44.392Z,4.02
2023-02-26T18:20:19.114Z,4.05
2023-02-26T18:22:47.980Z,4.09
2023-02-26T18:25:15.604Z,4.13
2023-02-26T18:27:43.467Z,3.86
2023-02-26T18:30:31.701Z,4.04
2023-02-26T18:32:58.391Z,3.64
2023-02-26T18:35:27.426Z,3.85
2023-02-26T18:37:55.397Z,3.47
2023-02-26T18:40:24.369Z,3.82
2023-02-26T18:42:51.559Z,3.76
2023-02-26T18:45:19.148Z,3.82
2023-02-26T18:47:47.027Z,3.85
2023-02-26T18:50:18.465Z,3.82
2023-02-26T18:52:45.013Z,3.52
2023-02-26T18:55:13.129Z,3.63
2023-02-26T18:57:42.448Z,3.62
2023-02-26T19:00:13.966Z,3.59
2023-02-26T19:02:42.556Z,3.56
2023-02-26T19:05:11.175Z,3.50
2023-02-26T19:07:38.314Z,3.58
2023-02-26T19:10:09.047Z,3.52
2023-02-26T19:12:35.588Z,3.56
2023-02-26T19:15:02.348Z,3.50
2023-02-26T19:17:29.064Z,3.34
2023-02-26T19:19:55.521Z,3.26
2023-02-26T19:22:22.063Z,3.44
2023-02-26T19:24:48.605Z,3.33
2023-02-26T19:27:15.901Z,3.34
2023-02-26T19:29:42.521Z,3.27
2023-02-26T19:32:09.405Z,3.16
2023-02-26T19:34:36.426Z,3.20
2023-02-26T19:37:02.950Z,3.32
2023-02-26T19:39:31.315Z,3.40
2023-02-26T19:41:58.321Z,3.29
2023-02-26T19:44:27.544Z,3.30
2023-02-26T19:46:55.022Z,2.93
2023-02-26T19:49:23.140Z,2.69
2023-02-26T19:51:50.045Z,3.06
2023-02-26T19:54:17.091Z,3.16
2023-02-26T19:56:44.780Z,3.17
2023-02-26T19:59:12.412Z,3.04
2023-02-26T20:01:41.472Z,3.11
2023-02-26T20:04:08.796Z,3.06
2023-02-26T20:06:35.642Z,3.06
2023-02-26T20:09:03.581Z,2.99
2023-02-26T20:11:30.099Z,2.66
2023-02-26T20:13:56.625Z,2.86
2023-02-26T20:16:23.167Z,2.96
2023-02-26T20:18:49.679Z,2.61
2023-02-26T20:21:16.126Z,2.71
2023-02-26T20:23:42.604Z,2.53
2023-02-26T20:26:12.625Z,2.66
2023-02-26T20:28:39.927Z,2.81
2023-02-26T20:31:07.385Z,2.49
2023-02-26T20:33:36.123Z,2.66
2023-02-26T20:36:03.368Z,2.70
2023-02-26T20:38:30.087Z,2.67
2023-02-26T20:40:57.299Z,2.58
2023-02-26T20:43:28.002Z,2.29
2023-02-26T20:45:56.294Z,2.43
2023-02-26T20:48:23.943Z,2.27
2023-02-26T20:50:53.504Z,2.44
2023-02-26T20:53:23.326Z,2.32
2023-02-26T20:55:50.087Z,2.38
2023-02-26T20:58:17.139Z,2.34
2023-02-26T21:00:43.801Z,2.40
2023-02-26T21:03:10.427Z,2.19
2023-02-26T21:05:38.592Z,2.38
2023-02-26T21:08:05.303Z,2.24
2023-02-26T21:10:32.805Z,2.34
2023-02-26T21:12:59.737Z,1.71
2023-02-26T21:15:26.490Z,1.87
2023-02-26T21:17:53.203Z,1.88
2023-02-26T21:20:22.251Z,2.22
2023-02-26T21:22:49.652Z,2.15
2023-02-26T21:25:16.726Z,2.22
2023-02-26T21:27:43.533Z,2.20
2023-02-26T21:30:12.220Z,2.17
2023-02-26T21:32:39.484Z,2.02
2023-02-26T21:35:07.834Z,2.27
2023-02-26T21:37:34.536Z,2.21
2023-02-26T21:40:03.857Z,2.00
2023-02-26T21:42:30.703Z,2.02
2023-02-26T21:44:57.164Z,2.02
2023-02-26T21:47:23.777Z,1.52
2023-02-26T21:49:50.307Z,1.72
2023-02-26T21:52:16.761Z,1.85
2023-02-26T21:54:43.382Z,1.78
2023-02-26T21:57:09.947Z,1.69
2023-02-26T21:59:36.441Z,1.74
2023-02-26T22:02:03.052Z,1.94
2023-02-26T22:04:29.705Z,1.91
2023-02-26T22:06:56.772Z,1.88
2023-02-26T22:09:23.308Z,1.77
2023-02-26T22:11:49.878Z,1.83
2023-02-26T22:14:17.081Z,1.78
2023-02-26T22:16:43.752Z,1.77
2023-02-26T22:19:10.306Z,1.43
2023-02-26T22:21:36.778Z,1.77
2023-02-26T22:24:03.808Z,1.70
2023-02-26T22:26:30.785Z,1.76
2023-02-26T22:28:59.672Z,1.84
2023-02-26T22:31:28.564Z,1.80
2023-02-26T22:33:56.418Z,1.38
2023-02-26T22:36:23.384Z,1.37
2023-02-26T22:38:49.928Z,1.43
2023-02-26T22:41:16.728Z,1.74
2023-02-26T22:43:43.200Z,1.48
2023-02-26T22:46:09.750Z,1.31
2023-02-26T22:48:36.407Z,1.54
2023-02-26T22:51:02.919Z,1.66
2023-02-26T22:53:29.426Z,1.63
2023-02-26T22:55:55.933Z,1.25
2023-02-26T22:58:22.535Z,1.58
2023-02-26T23:00:49.388Z,1.21
2023-02-26T23:03:15.924Z,1.55
2023-02-26T23:05:42.392Z,1.62
2023-02-26T23:08:09.011Z,1.57
2023-02-26T23:10:35.511Z,1.29
2023-02-26T23:13:03.137Z,1.63
2023-02-26T23:15:29.697Z,1.52
2023-02-26T23:17:56.191Z,1.53
2023-02-26T23:20:22.817Z,1.29
2023-02-26T23:22:49.335Z,1.51
2023-02-26T23:25:15.914Z,1.33
2023-02-26T23:27:42.536Z,1.27
2023-02-26T23:30:10.135Z,1.28
2023-02-26T23:32:36.817Z,1.38
2023-02-26T23:35:04.449Z,0.97
2023-02-26T23:37:31.242Z,1.37
2023-02-26T23:39:58.540Z,1.35
2023-02-26T23:42:25.070Z,0.98
2023-02-26T23:44:51.568Z,1.03
2023-02-26T23:47:18.262Z,1.28
2023-02-26T23:49:44.745Z,1.30
2023-02-26T23:52:11.368Z,1.05
2023-02-26T23:54:39.926Z,1.27
2023-02-26T23:57:07.010Z,1.29
2023-02-26T23:59:33.575Z,1.28
